Time;durP1;ratioP1;P1;durP2;ratioP2;P2;SDS_P1;SDS_P2;PMS_P1;PMS_P2;Temp;Humidity;BMP_temperature;BMP_pressure;BME280_temperature;BME280_humidity;BME280_pressure;Samples;Min_cycle;Max_cycle;Signal;HPM_P1;HPM_P2
2023/04/04 00:01:24;;;;;;;6.70;3.45;;;1.20;99.90;;;;;;5055714;28;20049;-41
2023/04/04 00:03:51;;;;;;;5.45;2.95;;;1.20;99.90;;;;;;5028607;28;20128;-40
2023/04/04 00:06:18;;;;;;;6.18;3.83;;;1.20;99.90;;;;;;5055483;28;20052;-40
2023/04/04 00:08:43;;;;;;;9.25;4.07;;;1.20;99.90;;;;;;5019642;28;20511;-41
2023/04/04 00:11:09;;;;;;;6.30;3.30;;;1.20;99.90;;;;;;5046748;28;20098;-44
2023/04/04 00:13:37;;;;;;;10.15;4.15;;;1.10;99.90;;;;;;5018350;28;20131;-43
2023/04/04 00:16:02;;;;;;;7.10;3.88;;;1.10;99.90;;;;;;5055454;28;20052;-39
2023/04/04 00:18:28;;;;;;;11.77;4.15;;;1.10;99.90;;;;;;5039108;28;20405;-40
2023/04/04 00:20:54;;;;;;;5.00;3.50;;;1.00;99.90;;;;;;5054660;28;20040;-39
2023/04/04 00:23:19;;;;;;;6.95;4.00;;;0.90;99.90;;;;;;5030663;28;20049;-38
2023/04/04 00:25:52;;;;;;;7.10;3.72;;;0.90;99.90;;;;;;5055381;28;20055;-44
2023/04/04 00:28:21;;;;;;;9.75;4.82;;;0.90;99.90;;;;;;5039057;28;20048;-39
2023/04/04 00:30:47;;;;;;;7.35;4.05;;;0.90;99.90;;;;;;5055062;28;20051;-39
2023/04/04 00:33:13;;;;;;;7.38;3.88;;;0.90;99.90;;;;;;4994160;28;20534;-43
2023/04/04 00:35:40;;;;;;;7.40;4.28;;;1.00;99.90;;;;;;5046010;28;20056;-39
2023/04/04 00:38:06;;;;;;;8.40;4.43;;;1.00;99.90;;;;;;5047548;28;20453;-43
2023/04/04 00:40:40;;;;;;;5.80;3.70;;;0.90;99.90;;;;;;5054932;28;20084;-39
2023/04/04 00:43:06;;;;;;;6.97;4.18;;;0.90;99.90;;;;;;5049363;28;20341;-38
2023/04/04 00:45:33;;;;;;;7.75;3.58;;;0.90;99.90;;;;;;5037457;28;20049;-42
2023/04/04 00:48:02;;;;;;;7.75;4.03;;;0.90;99.90;;;;;;5015878;28;20060;-37
2023/04/04 00:50:27;;;;;;;8.27;4.20;;;0.90;99.90;;;;;;5041987;28;20052;-35
2023/04/04 00:52:54;;;;;;;7.65;4.25;;;0.90;99.90;;;;;;4997818;28;20048;-46
2023/04/04 00:55:19;;;;;;;8.63;4.43;;;0.80;99.90;;;;;;5041930;28;20141;-35
2023/04/04 00:57:45;;;;;;;8.60;4.25;;;0.80;99.90;;;;;;5000761;28;20128;-39
2023/04/04 01:00:12;;;;;;;8.20;4.13;;;0.80;99.90;;;;;;5040746;28;20652;-37
2023/04/04 01:02:38;;;;;;;6.75;4.32;;;0.70;99.90;;;;;;5035815;28;20438;-39
2023/04/04 01:05:05;;;;;;;7.55;4.40;;;0.70;99.90;;;;;;5046287;28;20052;-43
2023/04/04 01:07:31;;;;;;;7.18;4.22;;;0.70;99.90;;;;;;5044125;28;20164;-42
2023/04/04 01:09:57;;;;;;;7.78;4.15;;;0.70;99.90;;;;;;5038503;28;20419;-41
2023/04/04 01:12:23;;;;;;;7.47;3.92;;;0.70;99.90;;;;;;5051972;28;20048;-39
2023/04/04 01:14:50;;;;;;;7.38;3.95;;;0.60;99.90;;;;;;5052799;28;20155;-45
2023/04/04 01:17:16;;;;;;;7.05;3.47;;;0.60;99.90;;;;;;5050187;28;20141;-44
2023/04/04 01:19:59;;;;;;;7.70;3.78;;;0.60;99.90;;;;;;5055116;22;20048;-42
2023/04/04 01:22:28;;;;;;;7.20;4.38;;;0.70;99.90;;;;;;5033538;28;20392;-39
2023/04/04 01:24:55;;;;;;;8.82;4.65;;;0.70;99.90;;;;;;5021260;28;20060;-42
2023/04/04 01:27:21;;;;;;;6.07;3.88;;;0.70;99.90;;;;;;5024861;28;20057;-39
2023/04/04 01:29:47;;;;;;;9.38;4.30;;;0.70;99.90;;;;;;5029515;28;20068;-37
2023/04/04 01:32:18;;;;;;;6.45;3.90;;;0.70;99.90;;;;;;5033247;28;20057;-35
2023/04/04 01:35:05;;;;;;;9.25;4.57;;;0.70;99.90;;;;;;5013369;28;20052;-41
2023/04/04 01:37:55;;;;;;;6.90;4.30;;;0.70;99.90;;;;;;5032667;28;20131;-44
2023/04/04 01:40:25;;;;;;;6.38;4.13;;;0.70;99.90;;;;;;5026262;28;20460;-38
2023/04/04 01:42:52;;;;;;;7.28;3.85;;;0.70;99.90;;;;;;5031348;28;20057;-37
2023/04/04 01:45:20;;;;;;;6.47;4.90;;;0.70;99.90;;;;;;5032312;28;20519;-42
2023/04/04 01:47:46;;;;;;;7.63;4.50;;;0.60;99.90;;;;;;5033471;28;20115;-42
2023/04/04 01:50:11;;;;;;;8.75;4.18;;;0.60;99.90;;;;;;5034130;28;20044;-40
2023/04/04 01:52:37;;;;;;;9.93;4.13;;;0.60;99.90;;;;;;5017327;28;20049;-35
2023/04/04 01:55:03;;;;;;;8.23;4.60;;;0.60;99.90;;;;;;5024439;28;20573;-36
2023/04/04 01:57:29;;;;;;;7.40;4.32;;;0.60;99.90;;;;;;5015113;28;20067;-44
2023/04/04 01:59:55;;;;;;;8.95;4.40;;;0.60;99.90;;;;;;5026322;28;20429;-44
2023/04/04 02:02:21;;;;;;;9.25;4.10;;;0.60;99.90;;;;;;4987876;28;20510;-37
2023/04/04 02:04:47;;;;;;;8.73;4.28;;;0.60;99.90;;;;;;5022805;28;20067;-40
2023/04/04 02:07:13;;;;;;;9.07;4.55;;;0.60;99.90;;;;;;5029346;28;20056;-40
2023/04/04 02:09:39;;;;;;;7.97;4.68;;;0.60;99.90;;;;;;5033935;28;20052;-43
2023/04/04 02:12:06;;;;;;;10.63;4.95;;;0.60;99.90;;;;;;5021038;28;20056;-43
2023/04/04 02:14:31;;;;;;;9.02;4.72;;;0.60;99.90;;;;;;5034288;28;20072;-43
2023/04/04 02:16:57;;;;;;;8.88;4.50;;;0.60;99.90;;;;;;5030382;28;20132;-36
2023/04/04 02:19:23;;;;;;;11.30;5.05;;;0.60;99.90;;;;;;5023370;28;20059;-37
2023/04/04 02:21:49;;;;;;;7.63;5.10;;;0.60;99.90;;;;;;5027950;28;20045;-42
2023/04/04 02:24:15;;;;;;;11.85;4.90;;;0.70;99.90;;;;;;5024605;28;20106;-38
2023/04/04 02:26:40;;;;;;;13.23;5.22;;;0.60;99.90;;;;;;5020568;28;20528;-46
2023/04/04 02:29:06;;;;;;;6.47;4.28;;;0.60;99.90;;;;;;5033969;28;20082;-44
2023/04/04 02:31:33;;;;;;;7.60;5.07;;;0.60;99.90;;;;;;5030594;28;20448;-37
2023/04/04 02:33:58;;;;;;;8.52;5.30;;;0.60;99.90;;;;;;5032749;28;20051;-42
2023/04/04 02:36:24;;;;;;;6.82;5.22;;;0.60;99.90;;;;;;5014820;28;20458;-41
2023/04/04 02:38:49;;;;;;;7.90;5.05;;;0.60;99.90;;;;;;5023368;28;20412;-41
2023/04/04 02:41:15;;;;;;;8.98;4.72;;;0.60;99.90;;;;;;5031017;28;20135;-38
2023/04/04 02:43:41;;;;;;;8.13;5.10;;;0.60;99.90;;;;;;5033014;28;20045;-48
2023/04/04 02:46:06;;;;;;;7.30;5.63;;;0.60;99.90;;;;;;5033552;28;20136;-41
2023/04/04 02:48:32;;;;;;;8.68;5.18;;;0.50;99.90;;;;;;5033876;28;20106;-36
2023/04/04 02:50:58;;;;;;;11.43;5.78;;;0.50;99.90;;;;;;5031191;28;20087;-35
2023/04/04 02:53:23;;;;;;;10.10;5.13;;;0.50;99.90;;;;;;5033452;28;20461;-40
2023/04/04 02:55:49;;;;;;;14.88;6.40;;;0.50;99.90;;;;;;5029764;28;20054;-42
2023/04/04 02:58:15;;;;;;;10.48;5.55;;;0.40;99.90;;;;;;5006265;28;20061;-38
2023/04/04 03:00:41;;;;;;;7.55;4.88;;;0.40;99.90;;;;;;5014151;28;20088;-43
2023/04/04 03:03:06;;;;;;;6.28;5.15;;;0.30;99.90;;;;;;5027720;28;20052;-42
2023/04/04 03:05:32;;;;;;;9.15;5.22;;;0.30;99.90;;;;;;5036424;28;20487;-40
2023/04/04 03:07:58;;;;;;;11.80;5.40;;;0.30;99.90;;;;;;5037032;28;20137;-35
2023/04/04 03:10:25;;;;;;;9.68;5.50;;;0.20;99.90;;;;;;5036724;28;20044;-37
2023/04/04 03:12:51;;;;;;;10.10;5.22;;;0.20;99.90;;;;;;5035602;28;20500;-38
2023/04/04 03:15:17;;;;;;;9.68;5.53;;;0.20;99.90;;;;;;5036979;28;20051;-40
2023/04/04 03:17:43;;;;;;;13.55;6.10;;;0.20;99.90;;;;;;5027742;28;20049;-35
2023/04/04 03:20:11;;;;;;;8.43;5.50;;;0.20;99.90;;;;;;5033390;28;20430;-40
2023/04/04 03:22:36;;;;;;;7.18;4.60;;;0.10;99.90;;;;;;5036175;28;20057;-42
2023/04/04 03:25:02;;;;;;;8.10;5.05;;;0.00;99.90;;;;;;5023812;28;20045;-41
2023/04/04 03:27:31;;;;;;;7.53;4.72;;;0.00;99.90;;;;;;5026405;28;20092;-35
2023/04/04 03:29:58;;;;;;;7.40;5.13;;;-0.10;99.90;;;;;;5016939;28;20057;-44
2023/04/04 03:32:24;;;;;;;8.10;5.18;;;-0.20;99.90;;;;;;5035296;28;20057;-40
2023/04/04 03:34:50;;;;;;;7.30;5.43;;;-0.20;99.90;;;;;;5027306;28;20037;-42
2023/04/04 03:37:17;;;;;;;10.68;5.25;;;-0.20;99.90;;;;;;5037053;28;20048;-40
2023/04/04 03:39:42;;;;;;;7.97;5.70;;;-0.20;99.90;;;;;;5035538;28;20574;-39
2023/04/04 03:42:08;;;;;;;9.50;7.13;;;-0.20;99.90;;;;;;5035153;28;20130;-41
2023/04/04 03:44:35;;;;;;;9.85;5.35;;;-0.10;99.90;;;;;;5022586;28;20076;-36
2023/04/04 03:47:01;;;;;;;10.90;6.57;;;-0.10;99.90;;;;;;5035342;28;20852;-39
2023/04/04 03:49:26;;;;;;;8.88;5.75;;;-0.10;99.90;;;;;;5020912;28;20140;-41
2023/04/04 03:51:52;;;;;;;7.75;6.30;;;-0.10;99.90;;;;;;5034812;28;20048;-40
2023/04/04 03:54:18;;;;;;;10.10;6.07;;;-0.10;99.90;;;;;;5022640;28;20492;-44
2023/04/04 03:56:44;;;;;;;10.85;6.28;;;-0.10;99.90;;;;;;5032777;28;20048;-41
2023/04/04 03:59:10;;;;;;;13.20;5.60;;;-0.10;99.90;;;;;;5034941;28;20059;-37
2023/04/04 04:01:35;;;;;;;9.18;5.55;;;-0.10;99.90;;;;;;5033615;28;20315;-38
2023/04/04 04:04:01;;;;;;;9.73;5.88;;;-0.10;99.90;;;;;;5033742;28;20049;-41
2023/04/04 04:06:26;;;;;;;8.40;5.95;;;-0.10;99.90;;;;;;5033989;28;20052;-39
2023/04/04 04:08:52;;;;;;;12.75;5.65;;;-0.20;99.90;;;;;;5035742;28;20049;-35
2023/04/04 04:11:18;;;;;;;7.22;5.40;;;-0.20;99.90;;;;;;5035114;28;20045;-41
2023/04/04 04:13:43;;;;;;;7.88;5.22;;;-0.20;99.90;;;;;;5034936;28;20049;-43
2023/04/04 04:16:09;;;;;;;8.95;5.07;;;-0.30;99.90;;;;;;5035507;28;20151;-40
2023/04/04 04:18:35;;;;;;;8.75;4.70;;;-0.30;99.90;;;;;;5035360;28;20056;-38
2023/04/04 04:21:02;;;;;;;7.82;5.18;;;-0.30;99.90;;;;;;5033762;28;20586;-39
2023/04/04 04:23:29;;;;;;;9.13;5.30;;;-0.40;99.90;;;;;;5016056;28;20052;-35
2023/04/04 04:25:55;;;;;;;8.68;5.20;;;-0.40;99.90;;;;;;5034935;28;20049;-40
2023/04/04 04:28:22;;;;;;;13.60;5.75;;;-0.40;99.90;;;;;;5034682;28;20045;-42
2023/04/04 04:30:48;;;;;;;7.82;5.25;;;-0.40;99.90;;;;;;5024691;28;20110;-43
2023/04/04 04:33:14;;;;;;;9.13;5.00;;;-0.40;99.90;;;;;;5033061;28;20416;-38
2023/04/04 04:35:40;;;;;;;10.25;5.55;;;-0.40;99.90;;;;;;5035746;28;20045;-46
2023/04/04 04:38:06;;;;;;;7.68;4.65;;;-0.40;99.90;;;;;;5017573;28;20111;-40
2023/04/04 04:40:35;;;;;;;7.40;5.18;;;-0.40;99.90;;;;;;5022085;28;20061;-44
2023/04/04 04:43:01;;;;;;;8.95;5.28;;;-0.40;99.90;;;;;;5032421;28;20045;-35
2023/04/04 04:45:26;;;;;;;8.45;5.18;;;-0.40;99.90;;;;;;5035254;28;20095;-48
2023/04/04 04:47:52;;;;;;;9.73;5.20;;;-0.30;99.90;;;;;;5033448;28;20052;-39
2023/04/04 04:50:18;;;;;;;8.52;5.45;;;-0.30;99.90;;;;;;5016851;28;20057;-41
2023/04/04 04:52:44;;;;;;;9.35;5.90;;;-0.30;99.90;;;;;;5033437;28;20068;-40
2023/04/04 04:55:10;;;;;;;10.73;6.20;;;-0.30;99.90;;;;;;5036116;28;20463;-41
2023/04/04 04:57:37;;;;;;;11.10;5.78;;;-0.30;99.90;;;;;;5035588;28;20426;-37
2023/04/04 05:00:03;;;;;;;10.38;6.57;;;-0.30;99.90;;;;;;5034614;28;20045;-39
2023/04/04 05:02:29;;;;;;;10.48;5.40;;;-0.30;99.90;;;;;;5033566;28;20045;-41
2023/04/04 05:04:55;;;;;;;11.13;5.70;;;-0.30;99.90;;;;;;5034059;28;20131;-42
2023/04/04 05:07:22;;;;;;;7.90;6.03;;;-0.30;99.90;;;;;;5034492;28;20041;-35
2023/04/04 05:09:50;;;;;;;8.68;6.05;;;-0.30;99.90;;;;;;5035566;28;20048;-36
2023/04/04 05:12:16;;;;;;;10.20;6.28;;;-0.30;99.90;;;;;;5033649;28;20423;-39
2023/04/04 05:14:42;;;;;;;8.55;5.20;;;-0.20;99.90;;;;;;5026223;28;20056;-41
2023/04/04 05:17:08;;;;;;;8.20;4.85;;;-0.20;99.90;;;;;;5035668;28;20126;-40
2023/04/04 05:19:33;;;;;;;7.53;5.13;;;-0.20;99.90;;;;;;5034935;28;20045;-43
2023/04/04 05:21:59;;;;;;;7.95;5.30;;;-0.10;99.90;;;;;;5033358;28;20044;-41
2023/04/04 05:24:24;;;;;;;9.25;5.82;;;0.00;99.90;;;;;;5034764;28;20075;-39
2023/04/04 05:26:50;;;;;;;9.85;5.22;;;0.30;99.90;;;;;;5035001;28;20458;-43
2023/04/04 05:29:16;;;;;;;9.07;5.78;;;0.50;99.90;;;;;;5035213;28;20080;-40
2023/04/04 05:31:41;;;;;;;12.40;6.18;;;0.90;99.90;;;;;;5033078;28;20911;-43
2023/04/04 05:34:07;;;;;;;9.38;5.75;;;1.40;99.90;;;;;;5033730;28;20057;-38
2023/04/04 05:36:36;;;;;;;10.48;5.13;;;1.80;99.90;;;;;;5032989;28;20053;-45
2023/04/04 05:39:05;;;;;;;9.50;5.40;;;2.00;99.90;;;;;;5034677;28;20286;-39
2023/04/04 05:41:31;;;;;;;10.23;5.80;;;2.00;99.90;;;;;;5032979;28;20076;-46
2023/04/04 05:43:57;;;;;;;9.60;5.00;;;2.00;99.90;;;;;;5021044;28;20106;-42
2023/04/04 05:46:23;;;;;;;10.05;6.03;;;1.90;99.90;;;;;;5020003;28;20041;-36
2023/04/04 05:48:52;;;;;;;7.07;5.38;;;1.80;99.90;;;;;;5013268;28;20052;-43
2023/04/04 05:51:17;;;;;;;8.35;5.43;;;1.90;99.90;;;;;;5033867;28;20041;-48
2023/04/04 05:53:46;;;;;;;7.97;5.72;;;2.10;99.90;;;;;;5013133;28;20056;-36
2023/04/04 05:56:12;;;;;;;11.82;6.38;;;2.30;99.90;;;;;;5021321;28;20049;-41
2023/04/04 05:58:38;;;;;;;10.98;6.32;;;2.50;99.90;;;;;;5032221;28;20051;-38
2023/04/04 06:01:10;;;;;;;10.30;6.35;;;2.80;99.90;;;;;;5033913;28;20057;-43
2023/04/04 06:03:36;;;;;;;8.00;5.90;;;3.50;99.90;;;;;;5032752;28;20060;-45
2023/04/04 06:06:03;;;;;;;10.30;6.55;;;4.30;99.90;;;;;;5034105;28;20466;-44
2023/04/04 06:08:29;;;;;;;8.20;6.30;;;5.50;99.90;;;;;;5015835;28;20530;-37
2023/04/04 06:10:55;;;;;;;8.30;6.25;;;6.60;99.90;;;;;;5034040;28;20048;-44
2023/04/04 06:13:21;;;;;;;8.50;5.70;;;7.90;99.90;;;;;;5032259;28;20049;-42
2023/04/04 06:15:46;;;;;;;8.40;5.07;;;9.20;99.90;;;;;;5033778;28;20049;-43
2023/04/04 06:18:12;;;;;;;9.20;5.75;;;10.10;99.90;;;;;;5033859;28;20048;-46
2023/04/04 06:20:37;;;;;;;7.72;5.38;;;10.90;99.90;;;;;;5034552;28;20240;-43
2023/04/04 06:23:03;;;;;;;6.90;5.00;;;11.70;99.90;;;;;;5032558;28;20530;-42
2023/04/04 06:25:30;;;;;;;10.20;5.28;;;12.10;99.90;;;;;;5033378;28;20049;-43
2023/04/04 06:27:56;;;;;;;6.63;4.95;;;12.60;99.90;;;;;;5033546;28;20260;-39
2023/04/04 06:30:22;;;;;;;8.20;4.78;;;12.60;99.90;;;;;;5033894;28;20108;-46
2023/04/04 06:32:48;;;;;;;6.35;4.22;;;13.00;99.90;;;;;;5039184;28;20512;-50
2023/04/04 06:35:14;;;;;;;6.63;4.78;;;13.20;99.90;;;;;;5006057;28;20580;-40
2023/04/04 06:37:40;;;;;;;6.55;4.40;;;13.00;99.90;;;;;;5037543;28;20055;-43
2023/04/04 06:40:06;;;;;;;8.63;5.35;;;13.10;99.90;;;;;;5019244;28;20052;-40
2023/04/04 06:42:32;;;;;;;7.75;4.88;;;13.30;99.90;;;;;;5036216;28;20162;-43
2023/04/04 06:44:57;;;;;;;5.78;4.68;;;12.40;99.40;;;;;;5011438;28;20152;-44
2023/04/04 06:47:23;;;;;;;15.05;5.28;;;12.70;99.90;;;;;;5030930;28;20064;-43
2023/04/04 06:49:49;;;;;;;8.20;4.30;;;12.70;99.60;;;;;;5036389;28;20446;-51
2023/04/04 06:52:14;;;;;;;6.63;5.00;;;11.70;99.90;;;;;;5028507;28;20407;-42
2023/04/04 06:54:40;;;;;;;5.30;4.40;;;11.00;99.90;;;;;;5035406;28;20053;-50
2023/04/04 06:57:06;;;;;;;5.60;4.53;;;10.70;99.90;;;;;;5034195;28;20139;-44
2023/04/04 06:59:31;;;;;;;6.75;4.45;;;10.00;99.90;;;;;;5032202;28;20848;-42
2023/04/04 07:01:57;;;;;;;6.75;4.80;;;9.80;99.90;;;;;;5033502;28;20146;-41
2023/04/04 07:04:23;;;;;;;7.32;5.30;;;9.50;99.90;;;;;;5035266;28;20057;-42
2023/04/04 07:06:48;;;;;;;7.25;4.80;;;9.50;99.90;;;;;;5033940;28;20531;-46
2023/04/04 07:09:14;;;;;;;6.10;4.70;;;9.40;99.90;;;;;;5001265;28;20546;-45
2023/04/04 07:11:40;;;;;;;8.05;5.10;;;9.30;99.90;;;;;;5032455;28;20040;-46
2023/04/04 07:14:05;;;;;;;5.88;4.50;;;9.20;99.90;;;;;;5031738;28;20052;-39
2023/04/04 07:16:31;;;;;;;8.43;4.40;;;9.10;99.90;;;;;;4997029;28;20053;-46
2023/04/04 07:18:57;;;;;;;6.70;4.40;;;9.10;99.90;;;;;;5032528;28;20495;-45
2023/04/04 07:21:23;;;;;;;8.23;4.60;;;8.70;99.90;;;;;;5033662;28;20098;-48
2023/04/04 07:23:50;;;;;;;9.52;5.15;;;8.60;99.90;;;;;;5027777;28;20037;-48
2023/04/04 07:26:15;;;;;;;8.73;4.70;;;8.20;99.90;;;;;;5035022;28;20053;-47
2023/04/04 07:28:41;;;;;;;7.07;4.60;;;8.10;99.90;;;;;;5032254;28;20041;-44
2023/04/04 07:31:07;;;;;;;8.20;4.43;;;7.90;99.90;;;;;;5035311;28;20476;-44
2023/04/04 07:33:33;;;;;;;8.35;5.25;;;7.80;99.90;;;;;;5032915;28;20306;-38
2023/04/04 07:36:00;;;;;;;7.68;4.97;;;7.60;99.90;;;;;;5031702;28;20107;-45
2023/04/04 07:38:26;;;;;;;7.47;4.72;;;7.40;99.90;;;;;;5022278;28;20052;-43
2023/04/04 07:40:52;;;;;;;7.90;4.85;;;7.00;99.90;;;;;;5015960;28;20049;-48
2023/04/04 07:43:17;;;;;;;8.52;5.20;;;6.80;99.90;;;;;;5034720;28;20098;-38
2023/04/04 07:45:43;;;;;;;6.65;4.20;;;6.90;99.90;;;;;;5019956;28;20050;-36
2023/04/04 07:48:09;;;;;;;9.95;4.45;;;7.00;99.90;;;;;;5034798;28;20098;-41
2023/04/04 07:50:35;;;;;;;7.53;4.65;;;7.10;99.90;;;;;;5034767;28;20052;-39
2023/04/04 07:53:00;;;;;;;6.25;4.30;;;7.30;99.90;;;;;;5020721;28;20114;-41
2023/04/04 07:55:26;;;;;;;9.05;4.95;;;7.40;99.90;;;;;;5034029;28;20543;-38
2023/04/04 07:57:53;;;;;;;6.78;4.63;;;7.40;99.90;;;;;;5022750;28;20084;-40
2023/04/04 08:00:20;;;;;;;9.07;4.50;;;7.50;99.90;;;;;;5024648;28;20056;-45
2023/04/04 08:02:52;;;;;;;10.13;4.10;;;7.60;99.90;;;;;;5031922;28;20095;-45
2023/04/04 08:05:17;;;;;;;5.38;3.90;;;7.40;99.90;;;;;;5031546;28;20052;-43
2023/04/04 08:07:43;;;;;;;5.63;3.78;;;7.70;99.90;;;;;;5008254;28;20393;-41
2023/04/04 08:10:09;;;;;;;6.40;3.65;;;7.90;99.90;;;;;;5026212;28;20045;-43
2023/04/04 08:12:35;;;;;;;5.85;3.70;;;7.80;99.90;;;;;;5013377;28;20044;-46
2023/04/04 08:15:00;;;;;;;6.00;4.43;;;8.00;99.90;;;;;;5030992;28;20045;-39
2023/04/04 08:17:27;;;;;;;6.07;3.38;;;8.10;99.90;;;;;;5031630;28;20049;-38
2023/04/04 08:19:53;;;;;;;5.32;3.75;;;8.20;99.90;;;;;;4997469;28;20500;-43
2023/04/04 08:22:19;;;;;;;8.48;4.05;;;8.30;99.90;;;;;;5009387;28;20055;-50
2023/04/04 08:24:45;;;;;;;6.90;3.95;;;8.20;99.90;;;;;;5033525;28;20041;-40
2023/04/04 08:27:11;;;;;;;5.68;3.67;;;8.40;99.90;;;;;;5029297;28;20056;-46
2023/04/04 08:29:37;;;;;;;8.07;3.50;;;8.70;99.90;;;;;;5033404;28;20052;-43
2023/04/04 08:32:02;;;;;;;6.22;3.85;;;8.80;99.90;;;;;;5030090;28;20048;-45
2023/04/04 08:34:28;;;;;;;6.97;3.47;;;8.90;99.90;;;;;;5032245;28;20045;-41
2023/04/04 08:36:54;;;;;;;8.20;3.53;;;8.80;99.90;;;;;;5029385;28;20041;-40
2023/04/04 08:39:20;;;;;;;5.18;3.58;;;9.00;99.90;;;;;;5032325;28;20089;-40
2023/04/04 08:41:46;;;;;;;5.45;3.03;;;9.30;99.90;;;;;;5014511;28;20037;-42
2023/04/04 08:44:21;;;;;;;8.27;4.60;;;9.40;99.90;;;;;;5032307;28;20041;-39
2023/04/04 08:46:48;;;;;;;5.68;3.88;;;9.50;99.90;;;;;;5028536;28;20160;-43
2023/04/04 08:49:17;;;;;;;6.20;3.20;;;9.40;99.90;;;;;;5023672;28;20128;-36
2023/04/04 08:51:44;;;;;;;6.00;2.85;;;9.30;99.90;;;;;;5013421;28;20076;-45
2023/04/04 08:54:12;;;;;;;7.03;2.92;;;9.10;99.90;;;;;;5030092;28;20297;-49
2023/04/04 08:56:37;;;;;;;7.03;3.15;;;9.10;99.90;;;;;;5033367;28;20045;-42
2023/04/04 08:59:03;;;;;;;6.35;2.92;;;9.00;99.90;;;;;;5029507;28;20057;-39
2023/04/04 09:01:29;;;;;;;6.50;2.75;;;9.10;99.90;;;;;;5015245;28;20416;-42
2023/04/04 09:03:59;;;;;;;4.68;2.63;;;9.30;99.90;;;;;;5028615;28;20511;-46
2023/04/04 09:06:25;;;;;;;6.72;2.97;;;9.50;99.90;;;;;;5020714;28;20095;-41
2023/04/04 09:08:52;;;;;;;5.28;2.92;;;9.50;99.90;;;;;;5029848;28;20484;-44
2023/04/04 09:11:20;;;;;;;5.45;3.05;;;9.60;99.90;;;;;;5032788;28;20462;-45
2023/04/04 09:13:49;;;;;;;7.53;3.30;;;9.60;99.90;;;;;;5033313;28;20053;-42
2023/04/04 09:16:16;;;;;;;4.82;3.22;;;9.60;99.90;;;;;;5033880;28;20133;-46
2023/04/04 09:18:42;;;;;;;10.45;3.90;;;9.50;99.90;;;;;;5001802;28;20052;-42
2023/04/04 09:21:12;;;;;;;8.68;3.10;;;9.50;99.90;;;;;;5014139;28;20060;-43
2023/04/04 09:23:38;;;;;;;7.53;3.35;;;9.50;99.90;;;;;;5020144;28;20045;-40
2023/04/04 09:26:04;;;;;;;7.03;3.30;;;9.40;99.90;;;;;;5033491;28;20522;-43
2023/04/04 09:28:31;;;;;;;5.80;3.40;;;9.50;99.90;;;;;;5033458;28;20048;-43
2023/04/04 09:31:00;;;;;;;5.82;3.20;;;9.60;99.90;;;;;;5034324;28;20052;-47
2023/04/04 09:33:26;;;;;;;6.30;3.88;;;9.60;99.90;;;;;;5029881;28;20532;-43
2023/04/04 09:35:58;;;;;;;7.00;4.40;;;9.60;99.90;;;;;;5028779;28;20095;-50
2023/04/04 09:38:26;;;;;;;7.63;2.80;;;9.70;99.90;;;;;;5031572;28;20060;-45
2023/04/04 09:40:53;;;;;;;5.43;2.92;;;9.70;99.90;;;;;;5029060;28;20941;-44
2023/04/04 09:43:21;;;;;;;8.55;3.15;;;9.60;99.90;;;;;;5029354;28;20052;-49
2023/04/04 09:45:47;;;;;;;6.22;2.88;;;9.60;99.90;;;;;;5026291;28;20438;-42
2023/04/04 09:48:27;;;;;;;5.10;3.00;;;9.80;99.90;;;;;;5031851;28;20057;-47
2023/04/04 09:50:53;;;;;;;5.88;3.10;;;9.80;99.90;;;;;;5024095;28;20079;-45
2023/04/04 09:53:19;;;;;;;4.88;2.85;;;9.70;99.90;;;;;;5030119;28;20072;-44
2023/04/04 09:55:53;;;;;;;6.32;2.55;;;9.70;99.90;;;;;;5031634;28;20258;-42
2023/04/04 09:58:25;;;;;;;6.97;2.85;;;9.80;99.90;;;;;;5031845;28;20407;-44
2023/04/04 10:00:54;;;;;;;4.88;2.28;;;9.80;99.90;;;;;;5032410;28;20056;-40
2023/04/04 10:03:22;;;;;;;6.55;3.10;;;9.70;99.90;;;;;;5026388;28;20475;-44
2023/04/04 10:05:55;;;;;;;7.88;2.97;;;9.80;99.90;;;;;;5032472;28;20566;-43
2023/04/04 10:08:21;;;;;;;5.38;2.88;;;9.90;99.90;;;;;;5032174;28;20068;-44
2023/04/04 10:10:50;;;;;;;5.80;2.83;;;9.90;99.90;;;;;;5035593;28;20036;-38
2023/04/04 10:13:23;;;;;;;5.80;3.53;;;10.10;99.90;;;;;;5035581;28;20052;-41
2023/04/04 10:15:50;;;;;;;5.22;3.47;;;10.20;99.90;;;;;;5035272;28;20044;-49
2023/04/04 10:18:16;;;;;;;6.90;3.33;;;10.20;99.90;;;;;;5036001;28;20056;-41
2023/04/04 10:20:42;;;;;;;8.15;3.55;;;9.70;99.50;;;;;;5036174;28;20052;-38
2023/04/04 10:23:08;;;;;;;8.80;3.47;;;9.70;99.90;;;;;;5035608;28;20857;-41
2023/04/04 10:25:35;;;;;;;7.28;3.50;;;9.80;99.90;;;;;;5035610;28;20045;-40
2023/04/04 10:28:01;;;;;;;7.20;3.10;;;9.80;99.90;;;;;;5032861;28;20055;-37
2023/04/04 10:30:27;;;;;;;6.45;3.00;;;9.90;99.90;;;;;;5034620;28;20410;-36
2023/04/04 10:33:06;;;;;;;7.53;3.20;;;9.80;99.60;;;;;;5034657;28;20541;-45
2023/04/04 10:35:34;;;;;;;5.68;3.25;;;9.90;99.90;;;;;;5024637;28;20060;-44
2023/04/04 10:38:04;;;;;;;5.97;3.05;;;9.90;99.90;;;;;;5011296;28;20060;-45
2023/04/04 10:40:42;;;;;;;6.75;3.33;;;10.00;99.90;;;;;;5034961;28;20520;-51
2023/04/04 10:43:11;;;;;;;4.95;2.70;;;10.00;99.90;;;;;;5030491;28;20068;-40
2023/04/04 10:45:41;;;;;;;6.38;3.13;;;10.20;99.90;;;;;;5032464;28;20124;-45
2023/04/04 10:48:07;;;;;;;5.75;3.10;;;10.20;99.90;;;;;;5036042;28;20045;-45
2023/04/04 10:50:35;;;;;;;8.15;3.33;;;10.20;99.90;;;;;;5033062;28;20814;-43
2023/04/04 10:53:03;;;;;;;7.72;3.38;;;10.20;99.70;;;;;;5029462;28;20587;-43
2023/04/04 10:55:30;;;;;;;5.85;3.05;;;10.30;99.40;;;;;;5034193;28;20088;-44
2023/04/04 10:57:57;;;;;;;6.43;3.78;;;10.30;99.90;;;;;;5033470;28;20056;-44
2023/04/04 11:00:23;;;;;;;5.43;2.75;;;10.40;99.90;;;;;;5032977;28;20460;-46
2023/04/04 11:03:00;;;;;;;8.65;3.28;;;10.60;99.90;;;;;;5030387;28;20041;-49
2023/04/04 11:05:26;;;;;;;6.65;3.72;;;10.60;99.90;;;;;;5035251;28;20325;-43
2023/04/04 11:07:57;;;;;;;6.22;3.20;;;10.60;99.90;;;;;;5030240;28;20048;-45
2023/04/04 11:10:26;;;;;;;6.53;2.80;;;10.60;99.90;;;;;;5023545;28;20053;-41
2023/04/04 11:12:54;;;;;;;6.80;3.60;;;10.60;99.90;;;;;;5031676;28;20449;-43
2023/04/04 11:15:21;;;;;;;5.53;3.35;;;10.60;99.30;;;;;;5033969;28;20053;-44
2023/04/04 11:17:58;;;;;;;5.80;3.45;;;10.80;99.90;;;;;;5026691;28;20479;-40
2023/04/04 11:20:33;;;;;;;7.85;3.67;;;11.00;99.40;;;;;;5033695;28;20557;-45
2023/04/04 11:23:21;;;;;;;5.03;3.58;;;10.80;99.70;;;;;;5034235;28;20527;-41
2023/04/04 11:25:55;;;;;;;8.13;4.47;;;10.90;99.30;;;;;;5020528;28;20046;-43
2023/04/04 11:28:32;;;;;;;5.15;3.88;;;10.70;98.70;;;;;;5030372;28;20041;-40
2023/04/04 11:31:17;;;;;;;9.32;4.10;;;10.80;99.10;;;;;;5029714;28;20056;-41
2023/04/04 11:34:01;;;;;;;5.75;3.42;;;10.90;98.80;;;;;;5033041;28;20048;-47
2023/04/04 11:36:39;;;;;;;8.23;3.65;;;10.90;99.30;;;;;;5020148;28;20432;-45
2023/04/04 11:39:27;;;;;;;6.43;3.90;;;10.90;98.90;;;;;;5014712;28;20151;-46
2023/04/04 11:42:14;;;;;;;8.32;3.85;;;11.10;98.00;;;;;;5021356;28;20045;-46
2023/04/04 11:44:58;;;;;;;6.30;3.85;;;11.00;98.30;;;;;;5032244;28;20328;-50
2023/04/04 11:47:24;;;;;;;6.18;3.67;;;11.00;98.20;;;;;;5016010;28;20092;-43
2023/04/04 11:49:52;;;;;;;5.63;2.97;;;11.10;98.40;;;;;;5034298;28;20136;-50
2023/04/04 11:52:18;;;;;;;7.55;3.97;;;11.00;97.80;;;;;;5033929;28;20550;-49
2023/04/04 11:54:46;;;;;;;5.47;3.78;;;11.20;98.00;;;;;;5013297;28;20148;-46
2023/04/04 11:57:16;;;;;;;5.93;3.85;;;11.30;98.30;;;;;;5014323;28;20415;-39
2023/04/04 11:59:45;;;;;;;4.80;3.60;;;11.40;98.90;;;;;;5025442;28;20091;-43
2023/04/04 12:02:14;;;;;;;5.45;3.92;;;11.50;99.00;;;;;;5029773;28;20122;-47
2023/04/04 12:04:43;;;;;;;8.18;3.67;;;11.40;97.70;;;;;;5023764;28;20721;-44
2023/04/04 12:07:08;;;;;;;4.32;3.35;;;11.50;97.90;;;;;;5020370;28;20620;-48
2023/04/04 12:09:35;;;;;;;6.38;4.03;;;11.60;98.70;;;;;;5011844;28;20052;-46
2023/04/04 12:12:02;;;;;;;7.60;4.03;;;11.60;98.60;;;;;;5030298;28;20393;-40
2023/04/04 12:14:27;;;;;;;9.48;4.20;;;11.60;98.40;;;;;;5025704;28;20045;-46
2023/04/04 12:16:58;;;;;;;5.47;3.85;;;11.80;99.00;;;;;;5030058;28;20052;-41
2023/04/04 12:19:25;;;;;;;7.65;4.10;;;11.80;98.20;;;;;;5020765;28;20128;-42
2023/04/04 12:21:52;;;;;;;7.28;5.00;;;11.70;97.50;;;;;;5016529;28;20416;-44
2023/04/04 12:24:18;;;;;;;8.20;3.90;;;11.70;98.00;;;;;;5033779;28;20444;-41
2023/04/04 12:26:46;;;;;;;5.60;3.45;;;11.70;98.00;;;;;;5030365;28;20057;-42
2023/04/04 12:29:14;;;;;;;6.63;4.78;;;11.60;97.70;;;;;;5025612;28;20053;-43
2023/04/04 12:31:43;;;;;;;5.82;3.83;;;11.50;97.50;;;;;;5026351;28;20060;-53
2023/04/04 12:34:28;;;;;;;6.03;3.97;;;11.30;97.60;;;;;;5034761;28;20049;-47
2023/04/04 12:36:56;;;;;;;6.63;4.00;;;11.30;97.70;;;;;;5022124;28;20377;-50
2023/04/04 12:39:24;;;;;;;7.38;3.75;;;11.30;97.80;;;;;;5004676;28;20053;-44
2023/04/04 12:41:56;;;;;;;6.72;4.75;;;11.40;98.40;;;;;;5021629;28;20076;-44
2023/04/04 12:44:26;;;;;;;5.78;3.70;;;11.40;97.90;;;;;;5031350;28;20593;-46
2023/04/04 12:46:57;;;;;;;9.38;4.80;;;11.50;97.80;;;;;;5030490;28;20099;-39
2023/04/04 12:49:26;;;;;;;7.47;3.72;;;11.30;97.50;;;;;;5031619;28;20612;-43
2023/04/04 12:51:53;;;;;;;6.25;3.53;;;11.30;98.10;;;;;;5022076;28;20049;-44
2023/04/04 12:54:29;;;;;;;5.55;3.70;;;11.50;98.60;;;;;;4980970;28;20124;-47